Airport View

Enter AWOS ICAO identifier for current METAR.

ex. KFNL

KGAD 101456Z AUTO 20003KT 10SM CLR 30/23 A3012 RMK AO2 SLP199 T03000228 51006

10 Aug 2020 15:47

Frequency: 127.825

Phone: 256-442-7094

Other Area AWOS: K8A0 - KASN - KANB - KPLR

TAF KANB 101125Z 1012/1112 00000KT P6SM FEW060 FM101700 29008KT P6SM VCTS SCT060CB FM102000 23009KT 6SM SHRA VCTS SCT060CB FM110200 10007KT P6SM SCT060 PROB30 1102/1106 4SM TSRA BKN060CB